Terminal Aerodrome Forecast
Issued by NWS Twin Cities, MN

Home | Current Version | Previous Version | Graphics & Text | Print | Product List | Glossary On
Versions: 1 2 3 4 5 6 7 8 9 10 11 12 13 14 15 16
000
FTUS43 KMPX 151700
TAFSTC
TAF
KSTC 151730Z 1518/1618 35012G18KT 4SM RA BR BKN006 OVC015
     FM152300 35016G27KT 2SM RAPLSN OVC005
     FM160100 34019G30KT 3/4SM -SN BR OVC008
     FM160400 35019G26KT 5SM -SN BR OVC015
     FM160700 33016G22KT P6SM OVC015=

USA.gov is the U.S. government's official web portal to all federal, state and local government web resources and services.